DEGOF EDDG-EDDG
Flight info
| Callsign | DEGOF |
|---|---|
| Flight time | 0h 9m |
| Altitude | |
| Route | |
| Aircraft | P28A |
Departure
| Time | 2026-04-20 18:41 |
|---|---|
| Airport | Münster Osnabrück Airport (EDDG) |
Arrival
| Time | 2026-04-20 18:51 |
|---|---|
| Airport | Münster Osnabrück Airport (EDDG) |
| Time | Latitude | Longitude | Altitude | Speed | Heading |
|---|---|---|---|---|---|
| 2026-04-20 18:41 | 52.06057 | 7.68946 | 1842 ft | 114 kts | 7° |
| 2026-04-20 18:41 | 52.06841 | 7.69108 | 1720 ft | 113 kts | 9° |
| 2026-04-20 18:42 | 52.07610 | 7.69341 | 1625 ft | 111 kts | 12° |
| 2026-04-20 18:42 | 52.08340 | 7.69715 | 1564 ft | 108 kts | 21° |
| 2026-04-20 18:42 | 52.09007 | 7.70250 | 1470 ft | 110 kts | 26° |
| 2026-04-20 18:42 | 52.09678 | 7.70783 | 1379 ft | 105 kts | 15° |
| 2026-04-20 18:43 | 52.10382 | 7.70931 | 1251 ft | 99 kts | 2° |
| 2026-04-20 18:43 | 52.11056 | 7.70940 | 1123 ft | 96 kts | 359° |
| 2026-04-20 18:43 | 52.11726 | 7.70836 | 852 ft | 100 kts | 350° |
| 2026-04-20 18:43 | 52.12405 | 7.70799 | 769 ft | 97 kts | 0° |
| 2026-04-20 18:44 | 52.13103 | 7.70795 | 630 ft | 102 kts | 359° |
| 2026-04-20 18:44 | 52.13692 | 7.70608 | 518 ft | 79 kts | 323° |
| 2026-04-20 18:44 | 52.13731 | 7.69735 | 200 ft | 84 kts | 272° |
| 2026-04-20 18:44 | 52.13562 | 7.68975 | 163 ft | 61 kts | 251° |
| 2026-04-20 18:45 | 52.13427 | 7.68328 | 172 ft | 70 kts | 255° |
| 2026-04-20 18:45 | 52.13248 | 7.67542 | 319 ft | 74 kts | 250° |
| 2026-04-20 18:45 | 52.12812 | 7.67366 | 479 ft | 78 kts | 143° |
| 2026-04-20 18:45 | 52.12334 | 7.67863 | 627 ft | 79 kts | 115° |
| 2026-04-20 18:46 | 52.12252 | 7.68691 | 758 ft | 79 kts | 76° |
| 2026-04-20 18:46 | 52.12246 | 7.69564 | 960 ft | 76 kts | 82° |
| 2026-04-20 18:46 | 52.11980 | 7.70352 | 1105 ft | 87 kts | 142° |
| 2026-04-20 18:46 | 52.11412 | 7.70499 | 1281 ft | 88 kts | 195° |
| 2026-04-20 18:47 | 52.11068 | 7.69782 | 1473 ft | 79 kts | 258° |
| 2026-04-20 18:47 | 52.11208 | 7.68943 | 1533 ft | 88 kts | 324° |
| 2026-04-20 18:47 | 52.11754 | 7.69049 | 1718 ft | 87 kts | 43° |
| 2026-04-20 18:47 | 52.11920 | 7.69964 | 1921 ft | 86 kts | 70° |
| 2026-04-20 18:48 | 52.12156 | 7.70865 | 2047 ft | 92 kts | 49° |
| 2026-04-20 18:48 | 52.12724 | 7.71255 | 2073 ft | 95 kts | 355° |
| 2026-04-20 18:48 | 52.13400 | 7.71114 | 1989 ft | 102 kts | 346° |
| 2026-04-20 18:48 | 52.13950 | 7.70589 | 2053 ft | 96 kts | 283° |
| 2026-04-20 18:49 | 52.13823 | 7.69513 | 2032 ft | 95 kts | 249° |
| 2026-04-20 18:49 | 52.13273 | 7.69174 | 1782 ft | 98 kts | 165° |
| 2026-04-20 18:49 | 52.12639 | 7.69459 | 1613 ft | 92 kts | 163° |
| 2026-04-20 18:49 | 52.12231 | 7.70142 | 1384 ft | 89 kts | 97° |
| 2026-04-20 18:50 | 52.12375 | 7.71015 | 1147 ft | 81 kts | 33° |
| 2026-04-20 18:50 | 52.12906 | 7.71261 | 894 ft | 83 kts | 357° |
| 2026-04-20 18:50 | 52.13463 | 7.71070 | 674 ft | 82 kts | 345° |
| 2026-04-20 18:50 | 52.13857 | 7.70478 | 482 ft | 81 kts | 288° |
| 2026-04-20 18:51 | 52.13696 | 7.69598 | 244 ft | 77 kts | 279° |
| 2026-04-20 18:51 | 52.13542 | 7.68851 | 162 ft | 61 kts | 251° |
| 2026-04-20 18:51 | 52.13433 | 7.68325 | 163 ft | 29 kts | 251° |
| 2026-04-20 18:51 | 52.13333 | 7.68277 | 162 ft | 15 kts | 163° |
| 2026-04-20 18:52 | 52.13244 | 7.68329 | 161 ft | 12 kts | 161° |
| 2026-04-20 18:52 | 52.13173 | 7.68366 | 161 ft | 9 kts | 181° |
| 2026-04-20 18:52 | 52.13154 | 7.68325 | 161 ft | 5 kts | 274° |